createdAt,value
2019-03-21T00:00:50.493Z,75.35
2019-03-21T00:01:50.486Z,75.35
2019-03-21T00:02:50.470Z,75.45
2019-03-21T00:03:50.459Z,75.45
2019-03-21T00:04:50.476Z,75.45
2019-03-21T00:05:50.444Z,75.45
2019-03-21T00:06:50.453Z,75.66
2019-03-21T00:07:50.435Z,75.56
2019-03-21T00:08:50.410Z,75.66
2019-03-21T00:09:50.398Z,75.66
2019-03-21T00:10:50.398Z,75.86
2019-03-21T00:11:50.371Z,75.76
2019-03-21T00:12:50.362Z,75.96
2019-03-21T00:13:50.358Z,76.07
2019-03-21T00:14:50.367Z,75.96
2019-03-21T00:15:50.338Z,75.96
2019-03-21T00:16:50.323Z,75.86
2019-03-21T00:17:50.309Z,75.96
2019-03-21T00:18:50.298Z,75.56
2019-03-21T00:19:50.292Z,76.07
2019-03-21T00:20:50.298Z,76.07
2019-03-21T00:21:50.269Z,76.07
2019-03-21T00:22:50.256Z,75.96
2019-03-21T00:23:50.242Z,76.17
2019-03-21T00:24:50.235Z,76.17
2019-03-21T00:25:50.236Z,76.37
2019-03-21T00:26:50.216Z,76.17
2019-03-21T00:27:50.208Z,76.48
2019-03-21T00:28:50.196Z,76.37
2019-03-21T00:29:50.182Z,76.27
2019-03-21T00:30:50.169Z,76.27
2019-03-21T00:31:50.159Z,76.27
2019-03-21T00:32:50.178Z,76.17
2019-03-21T00:33:50.135Z,76.17
2019-03-21T00:34:50.128Z,76.78
2019-03-21T00:35:50.115Z,76.68
2019-03-21T00:36:50.100Z,76.68
2019-03-21T00:37:50.105Z,76.62
2019-03-21T00:38:50.080Z,76.31
2019-03-21T00:39:50.077Z,76.82
2019-03-21T00:40:50.063Z,76.41
2019-03-21T00:41:50.059Z,76.51
2019-03-21T00:42:50.050Z,76.41
2019-03-21T00:43:50.027Z,76.41
2019-03-21T00:44:50.019Z,76.41
2019-03-21T00:45:50.004Z,76.62
2019-03-21T00:46:50.037Z,76.82
2019-03-21T00:47:49.980Z,76.89
2019-03-21T00:48:49.969Z,77.23
2019-03-21T00:49:49.964Z,76.82
2019-03-21T00:50:49.953Z,76.92
2019-03-21T00:51:49.942Z,76.72
2019-03-21T00:52:49.947Z,76.72
2019-03-21T00:53:49.916Z,76.51
2019-03-21T00:54:49.910Z,77.33
2019-03-21T00:55:49.896Z,78.05
2019-03-21T00:56:49.884Z,78.12
2019-03-21T00:57:49.914Z,77.95
2019-03-21T00:58:49.874Z,77.95
2019-03-21T00:59:49.858Z,77.74
2019-03-21T01:00:49.844Z,78.05
2019-03-21T01:01:49.829Z,77.64
2019-03-21T01:02:49.824Z,77.74
2019-03-21T01:03:49.825Z,77.54
2019-03-21T01:04:49.801Z,77.44
2019-03-21T01:05:49.784Z,77.44
2019-03-21T01:06:49.782Z,77.44
2019-03-21T01:07:49.768Z,77.03
2019-03-21T01:08:49.781Z,77.54
2019-03-21T01:09:49.750Z,77.23
2019-03-21T01:10:49.745Z,77.84
2019-03-21T01:11:49.723Z,77.54
2019-03-21T01:12:49.708Z,77.64
2019-03-21T01:13:49.706Z,77.74
2019-03-21T01:14:49.692Z,77.84
2019-03-21T01:15:49.698Z,77.64
2019-03-21T01:16:49.670Z,77.84
2019-03-21T01:17:49.654Z,78.25
2019-03-21T01:18:49.664Z,78.36
2019-03-21T01:19:49.649Z,78.16
2019-03-21T01:20:49.632Z,78.56
2019-03-21T01:21:49.614Z,78.77
2019-03-21T01:22:49.603Z,78.97
2019-03-21T01:23:49.594Z,79.08
2019-03-21T01:24:49.715Z,78.97
2019-03-21T01:25:49.572Z,78.97
2019-03-21T01:26:49.567Z,78.77
2019-03-21T01:27:49.546Z,78.87
2019-03-21T01:28:49.535Z,78.91
2019-03-21T01:29:49.527Z,78.77
2019-03-21T01:30:49.533Z,78.56
2019-03-21T01:31:49.540Z,79.18
2019-03-21T01:32:49.498Z,78.56
2019-03-21T01:33:49.484Z,79.38
2019-03-21T01:34:49.473Z,79.18
2019-03-21T01:35:49.470Z,79.42
2019-03-21T01:36:49.457Z,79.38
2019-03-21T01:37:49.448Z,79.59
2019-03-21T01:38:49.452Z,79.63
2019-03-21T01:39:49.419Z,79.38
2019-03-21T01:40:49.463Z,79.38
2019-03-21T01:41:49.393Z,79.49
2019-03-21T01:42:49.387Z,79.69
2019-03-21T01:43:49.381Z,79.90
2019-03-21T01:44:49.364Z,79.28
2019-03-21T01:45:49.349Z,79.90
2019-03-21T01:46:49.356Z,79.90
2019-03-21T01:47:49.327Z,79.83
2019-03-21T01:48:49.323Z,79.83
2019-03-21T01:49:49.310Z,79.69
2019-03-21T01:50:49.296Z,80.10
2019-03-21T01:51:49.295Z,79.93
2019-03-21T01:52:49.279Z,80.04
2019-03-21T01:53:49.267Z,79.90
2019-03-21T01:54:49.275Z,80.00
2019-03-21T01:55:49.254Z,80.04
2019-03-21T01:56:49.254Z,79.90
2019-03-21T01:57:49.218Z,79.93
2019-03-21T01:58:49.212Z,79.59
2019-03-21T01:59:49.235Z,80.14
2019-03-21T02:00:49.193Z,80.55
2019-03-21T02:01:49.254Z,80.14
2019-03-21T02:02:49.162Z,80.45
2019-03-21T02:03:49.157Z,79.90
2019-03-21T02:04:49.155Z,80.10
2019-03-21T02:05:49.134Z,79.73
2019-03-21T02:06:49.120Z,80.55
2019-03-21T02:07:49.141Z,80.45
2019-03-21T02:08:49.097Z,80.65
2019-03-21T02:09:49.091Z,80.62
2019-03-21T02:10:49.075Z,80.76
2019-03-21T02:11:49.069Z,80.86
2019-03-21T02:12:49.064Z,80.76
2019-03-21T02:13:49.048Z,80.76
2019-03-21T02:14:52.370Z,80.55
2019-03-21T02:15:50.768Z,80.76
2019-03-21T02:16:49.033Z,80.45
2019-03-21T02:17:49.026Z,80.45
2019-03-21T02:18:48.991Z,80.41
2019-03-21T02:19:48.992Z,80.45
2019-03-21T02:20:48.976Z,80.35
2019-03-21T02:21:48.954Z,80.24
2019-03-21T02:22:48.956Z,80.45
2019-03-21T02:23:48.941Z,80.55
2019-03-21T02:24:48.928Z,80.65
2019-03-21T02:25:48.909Z,80.65
2019-03-21T02:26:48.903Z,80.65
2019-03-21T02:27:48.904Z,80.65
2019-03-21T02:28:48.884Z,81.27
2019-03-21T02:29:48.866Z,81.16
2019-03-21T02:30:48.885Z,80.96
2019-03-21T02:31:48.843Z,81.16
2019-03-21T02:32:48.881Z,81.16
2019-03-21T02:33:48.824Z,81.37
2019-03-21T02:34:48.811Z,80.76
2019-03-21T02:35:48.802Z,80.72
2019-03-21T02:36:48.798Z,80.96
2019-03-21T02:37:48.783Z,81.27
2019-03-21T02:38:48.843Z,81.27
2019-03-21T02:39:59.500Z,81.06
2019-03-21T02:40:49.765Z,81.06
2019-03-21T02:41:48.740Z,81.48
2019-03-21T02:42:48.728Z,81.68
2019-03-21T02:43:48.718Z,81.48
2019-03-21T02:44:48.801Z,81.57
2019-03-21T02:45:48.709Z,81.82
2019-03-21T02:46:48.684Z,81.51
2019-03-21T02:47:48.675Z,81.78
2019-03-21T02:48:48.673Z,81.99
2019-03-21T02:49:48.670Z,82.09
2019-03-21T02:50:48.654Z,81.62
2019-03-21T02:51:48.635Z,81.88
2019-03-21T02:52:48.616Z,81.57
2019-03-21T02:53:48.682Z,81.99
2019-03-21T02:54:48.602Z,82.13
2019-03-21T02:55:48.595Z,81.82
2019-03-21T02:56:48.593Z,82.09
2019-03-21T02:57:48.567Z,81.57
2019-03-21T02:58:48.554Z,82.33
2019-03-21T02:59:48.544Z,81.88
2019-03-21T03:00:48.541Z,82.03
2019-03-21T03:01:48.531Z,81.71
2019-03-21T03:02:48.507Z,81.51
2019-03-21T03:03:48.503Z,82.13
2019-03-21T03:04:48.501Z,81.62
2019-03-21T03:05:48.474Z,81.62
2019-03-21T03:06:48.515Z,81.62
2019-03-21T03:07:48.463Z,81.62
2019-03-21T03:08:48.446Z,82.23
2019-03-21T03:09:48.441Z,82.23
2019-03-21T03:10:48.424Z,82.23
2019-03-21T03:11:48.419Z,82.03
2019-03-21T03:12:48.422Z,81.82
2019-03-21T03:13:48.409Z,81.92
2019-03-21T03:14:48.401Z,81.71
2019-03-21T03:15:48.369Z,82.03
2019-03-21T03:16:48.354Z,82.03
2019-03-21T03:17:48.357Z,81.82
2019-03-21T03:18:48.356Z,82.23
2019-03-21T03:19:48.336Z,82.03
2019-03-21T03:20:48.324Z,81.82
2019-03-21T03:21:48.307Z,82.03
2019-03-21T03:22:48.290Z,81.62
2019-03-21T03:23:48.346Z,81.92
2019-03-21T03:24:48.283Z,81.92
2019-03-21T03:25:50.941Z,82.13
2019-03-21T03:26:48.253Z,82.03
2019-03-21T03:27:48.242Z,82.13
2019-03-21T03:28:48.228Z,82.13
2019-03-21T03:29:48.252Z,82.03
2019-03-21T03:30:48.213Z,82.43
2019-03-21T03:31:48.206Z,81.92
2019-03-21T03:32:48.184Z,82.75
2019-03-21T03:33:48.170Z,82.64
2019-03-21T03:34:48.186Z,82.54
2019-03-21T03:35:48.154Z,82.03
2019-03-21T03:36:48.140Z,82.33
2019-03-21T03:37:48.130Z,82.95
2019-03-21T03:38:48.123Z,82.64
2019-03-21T03:39:48.115Z,82.75
2019-03-21T03:40:48.105Z,82.64
2019-03-21T03:41:48.087Z,82.75
2019-03-21T03:42:48.100Z,82.84
2019-03-21T03:43:48.057Z,82.75
2019-03-21T03:44:48.056Z,83.15
2019-03-21T03:45:48.046Z,83.05
2019-03-21T03:46:48.041Z,82.95
2019-03-21T03:47:48.011Z,83.26
2019-03-21T03:48:48.003Z,82.57
2019-03-21T03:49:47.997Z,82.54
2019-03-21T03:50:47.993Z,82.68
2019-03-21T03:51:47.985Z,82.68
2019-03-21T03:52:48.061Z,82.57
2019-03-21T03:53:47.954Z,82.47
2019-03-21T03:54:47.938Z,82.47
2019-03-21T03:55:47.950Z,82.47
2019-03-21T03:56:47.925Z,82.78
2019-03-21T03:57:47.923Z,82.68
2019-03-21T03:58:47.897Z,82.54
2019-03-21T03:59:47.889Z,82.89
2019-03-21T04:00:47.881Z,83.29
2019-03-21T04:01:47.862Z,83.09
2019-03-21T04:02:47.859Z,83.05
2019-03-21T04:03:47.847Z,83.09
2019-03-21T04:04:47.836Z,83.05
2019-03-21T04:05:47.835Z,82.95
2019-03-21T04:06:47.812Z,83.09
2019-03-21T04:07:47.796Z,83.09
2019-03-21T04:08:47.792Z,82.99
2019-03-21T04:09:47.820Z,82.68
2019-03-21T04:10:47.774Z,83.19
2019-03-21T04:11:47.752Z,82.78
2019-03-21T04:12:47.740Z,82.78
2019-03-21T04:13:47.730Z,82.89
2019-03-21T04:14:47.729Z,82.57
2019-03-21T04:15:53.168Z,82.27
2019-03-21T04:16:48.701Z,82.13
2019-03-21T04:17:47.692Z,81.96
2019-03-21T04:18:47.727Z,81.86
2019-03-21T04:19:47.667Z,81.86
2019-03-21T04:20:47.653Z,82.17
2019-03-21T04:21:47.651Z,81.86
2019-03-21T04:22:47.631Z,82.17
2019-03-21T04:23:47.632Z,81.96
2019-03-21T04:24:47.609Z,82.13
2019-03-21T04:25:47.609Z,81.96
2019-03-21T04:26:47.586Z,81.76
2019-03-21T04:27:47.579Z,82.17
2019-03-21T04:28:47.587Z,81.76
2019-03-21T04:29:47.558Z,82.06
2019-03-21T04:30:47.549Z,82.06
2019-03-21T04:31:47.532Z,82.06
2019-03-21T04:32:47.529Z,82.17
2019-03-21T04:33:47.513Z,81.65
2019-03-21T04:34:47.515Z,81.55
2019-03-21T04:35:47.495Z,81.45
2019-03-21T04:36:47.502Z,81.76
2019-03-21T04:37:47.468Z,81.45
2019-03-21T04:38:47.466Z,81.76
2019-03-21T04:39:47.472Z,81.45
2019-03-21T04:40:47.434Z,81.65
2019-03-21T04:41:47.436Z,81.34
2019-03-21T04:42:47.412Z,81.24
2019-03-21T04:43:47.406Z,81.41
2019-03-21T04:44:47.391Z,81.34
2019-03-21T04:45:47.383Z,81.24
2019-03-21T04:46:47.391Z,81.04
2019-03-21T04:47:47.357Z,81.20
2019-03-21T04:48:47.348Z,81.45
2019-03-21T04:49:47.338Z,81.04
2019-03-21T04:50:47.328Z,81.04
2019-03-21T04:51:47.324Z,81.24
2019-03-21T04:52:47.318Z,81.14
2019-03-21T04:53:47.296Z,81.34
2019-03-21T04:54:47.287Z,81.04
2019-03-21T04:55:47.276Z,81.34
2019-03-21T04:56:47.266Z,81.14
2019-03-21T04:57:47.262Z,81.04
2019-03-21T04:58:47.241Z,81.34
2019-03-21T04:59:47.224Z,81.34
2019-03-21T05:00:47.219Z,81.04
2019-03-21T05:01:47.202Z,81.04
2019-03-21T05:02:47.208Z,81.04
2019-03-21T05:03:47.186Z,81.34
2019-03-21T05:04:47.193Z,81.24
2019-03-21T05:05:47.161Z,81.24
2019-03-21T05:06:47.154Z,81.14
2019-03-21T05:07:47.141Z,81.14
2019-03-21T05:08:47.159Z,81.04
2019-03-21T05:09:47.119Z,81.04
2019-03-21T05:10:47.107Z,81.24
2019-03-21T05:11:47.114Z,81.24
2019-03-21T05:12:47.084Z,81.24
2019-03-21T05:13:47.078Z,81.24
2019-03-21T05:14:47.073Z,81.04
2019-03-21T05:15:47.046Z,81.00
2019-03-21T05:16:47.040Z,81.04
2019-03-21T05:17:47.027Z,81.55
2019-03-21T05:18:47.042Z,81.76
2019-03-21T05:19:47.009Z,81.65
2019-03-21T05:20:46.999Z,81.76
2019-03-21T05:21:46.991Z,81.76
2019-03-21T05:22:46.968Z,81.76
2019-03-21T05:23:46.960Z,81.76
2019-03-21T05:24:46.964Z,81.55
2019-03-21T05:25:46.943Z,81.86
2019-03-21T05:26:46.937Z,81.86
2019-03-21T05:27:46.914Z,81.92
2019-03-21T05:28:46.905Z,81.62
2019-03-21T05:29:46.891Z,81.76
2019-03-21T05:30:46.889Z,81.62
2019-03-21T05:31:46.878Z,81.71
2019-03-21T05:32:46.863Z,81.92
2019-03-21T05:33:46.848Z,81.45
2019-03-21T05:34:46.841Z,81.41
2019-03-21T05:35:46.838Z,81.51
2019-03-21T05:36:46.819Z,81.20
2019-03-21T05:37:46.809Z,81.41
2019-03-21T05:38:46.797Z,81.10
2019-03-21T05:39:46.789Z,81.20
2019-03-21T05:40:46.791Z,81.62
2019-03-21T05:41:46.765Z,81.41
2019-03-21T05:42:46.750Z,81.51
2019-03-21T05:43:46.744Z,81.51
2019-03-21T05:44:46.743Z,81.30
2019-03-21T05:45:46.727Z,81.41
2019-03-21T05:46:46.713Z,80.90
2019-03-21T05:47:46.698Z,80.90
2019-03-21T05:48:46.689Z,81.06
2019-03-21T05:49:46.722Z,81.16
2019-03-21T05:50:46.663Z,81.30
2019-03-21T05:51:46.656Z,81.10
2019-03-21T05:52:46.645Z,81.16
2019-03-21T05:53:46.635Z,81.37
2019-03-21T05:54:46.622Z,81.30
2019-03-21T05:55:46.617Z,81.20
2019-03-21T05:56:46.635Z,81.27
2019-03-21T05:57:46.594Z,81.16
2019-03-21T05:58:46.580Z,81.27
2019-03-21T05:59:46.578Z,81.27
2019-03-21T06:00:46.560Z,81.06
2019-03-21T06:01:46.549Z,81.16
2019-03-21T06:02:46.583Z,81.27
2019-03-21T06:03:46.557Z,81.16
2019-03-21T06:04:46.510Z,80.86
2019-03-21T06:05:46.505Z,81.27
2019-03-21T06:06:46.494Z,81.16
2019-03-21T06:07:46.484Z,81.06
2019-03-21T06:08:46.475Z,81.48
2019-03-21T06:09:46.455Z,81.57
2019-03-21T06:10:46.450Z,81.37
2019-03-21T06:11:46.453Z,81.37
2019-03-21T06:12:46.430Z,81.68
2019-03-21T06:13:46.413Z,81.57
2019-03-21T06:14:46.408Z,81.48
2019-03-21T06:15:46.395Z,81.57
2019-03-21T06:16:46.418Z,81.16
2019-03-21T06:17:46.383Z,81.68
2019-03-21T06:18:46.357Z,81.48
2019-03-21T06:19:46.356Z,81.16
2019-03-21T06:20:46.354Z,81.57
2019-03-21T06:21:46.328Z,81.48
2019-03-21T06:22:46.336Z,81.34
2019-03-21T06:23:46.309Z,81.57
2019-03-21T06:24:46.299Z,81.57
2019-03-21T06:25:46.286Z,81.68
2019-03-21T06:26:46.277Z,81.37
2019-03-21T06:27:46.289Z,81.57
2019-03-21T06:28:46.255Z,81.64
2019-03-21T06:29:46.257Z,81.64
2019-03-21T06:30:46.232Z,81.43
2019-03-21T06:31:46.222Z,81.74
2019-03-21T06:32:46.252Z,81.43
2019-03-21T06:33:46.202Z,81.57
2019-03-21T06:34:46.199Z,81.85
2019-03-21T06:35:46.184Z,81.85
2019-03-21T06:36:46.169Z,81.64
2019-03-21T06:37:46.160Z,81.54
2019-03-21T06:38:46.181Z,81.54
2019-03-21T06:39:46.175Z,81.13
2019-03-21T06:40:46.121Z,81.34
2019-03-21T06:41:46.120Z,81.13
2019-03-21T06:42:46.121Z,81.13
2019-03-21T06:43:46.089Z,81.54
2019-03-21T06:44:46.119Z,81.23
2019-03-21T06:45:48.191Z,81.13
2019-03-21T06:46:49.790Z,81.13
2019-03-21T06:47:46.052Z,80.72
2019-03-21T06:48:46.035Z,80.72
2019-03-21T06:49:46.624Z,81.13
2019-03-21T06:50:46.032Z,81.23
2019-03-21T06:51:46.006Z,80.99
2019-03-21T06:52:45.992Z,80.99
2019-03-21T06:53:45.985Z,80.68
2019-03-21T06:54:45.968Z,80.47
2019-03-21T06:55:45.990Z,80.78
2019-03-21T06:56:45.951Z,80.78
2019-03-21T06:57:45.935Z,80.41
2019-03-21T06:58:45.925Z,80.37
2019-03-21T06:59:45.926Z,80.58
2019-03-21T07:00:45.908Z,80.31
2019-03-21T07:01:45.913Z,80.58
2019-03-21T07:02:45.881Z,80.58
2019-03-21T07:03:45.870Z,80.68
2019-03-21T07:04:45.864Z,80.27
2019-03-21T07:05:45.862Z,80.37
2019-03-21T07:06:45.853Z,80.17
2019-03-21T07:07:45.827Z,80.78
2019-03-21T07:08:45.815Z,80.37
2019-03-21T07:09:45.818Z,80.33
2019-03-21T07:10:45.799Z,80.64
2019-03-21T07:11:45.788Z,79.75
2019-03-21T07:12:45.798Z,79.82
2019-03-21T07:13:45.765Z,79.82
2019-03-21T07:14:45.754Z,79.93
2019-03-21T07:15:45.743Z,79.41
2019-03-21T07:16:45.732Z,79.31
2019-03-21T07:17:45.720Z,79.24
2019-03-21T07:18:45.742Z,79.41
2019-03-21T07:19:45.698Z,79.62
2019-03-21T07:20:45.682Z,79.31
2019-03-21T07:21:45.677Z,79.21
2019-03-21T07:22:45.673Z,79.21
2019-03-21T07:23:45.657Z,79.11
2019-03-21T07:24:45.652Z,79.11
2019-03-21T07:25:45.624Z,79.31
2019-03-21T07:26:45.613Z,79.21
2019-03-21T07:27:45.601Z,79.21
2019-03-21T07:28:45.621Z,79.31
2019-03-21T07:29:45.581Z,79.11
2019-03-21T07:30:45.617Z,78.90
2019-03-21T07:31:45.554Z,78.86
2019-03-21T07:32:45.546Z,79.00
2019-03-21T07:33:45.537Z,78.80
2019-03-21T07:34:45.543Z,78.49
2019-03-21T07:35:45.532Z,78.90
2019-03-21T07:36:45.496Z,78.76
2019-03-21T07:37:45.491Z,78.90
2019-03-21T07:38:45.476Z,78.19
2019-03-21T07:39:45.486Z,78.39
2019-03-21T07:40:45.463Z,78.59
2019-03-21T07:41:45.459Z,78.97
2019-03-21T07:42:45.429Z,78.28
2019-03-21T07:43:45.425Z,77.98
2019-03-21T07:44:45.425Z,79.00
2019-03-21T07:45:45.400Z,78.97
2019-03-21T07:46:45.393Z,78.90
2019-03-21T07:47:45.377Z,79.17
2019-03-21T07:48:45.360Z,78.66
2019-03-21T07:49:45.348Z,78.66
2019-03-21T07:50:45.355Z,78.56
2019-03-21T07:51:45.455Z,78.25
2019-03-21T07:52:45.318Z,78.35
2019-03-21T07:53:45.310Z,77.84
2019-03-21T07:54:45.316Z,78.05
2019-03-21T07:55:45.283Z,78.05
2019-03-21T07:56:45.274Z,78.15
2019-03-21T07:57:45.300Z,77.53
2019-03-21T07:58:45.251Z,77.94
2019-03-21T07:59:45.252Z,77.12
2019-03-21T08:00:45.228Z,77.73
2019-03-21T08:01:45.214Z,78.25
2019-03-21T08:02:45.204Z,78.15
2019-03-21T08:03:45.212Z,78.25
2019-03-21T08:04:45.183Z,77.53
2019-03-21T08:05:45.173Z,77.73
2019-03-21T08:06:45.161Z,77.73
2019-03-21T08:07:45.168Z,77.53
2019-03-21T08:08:45.137Z,77.53
2019-03-21T08:09:45.121Z,77.73
2019-03-21T08:10:45.115Z,77.33
2019-03-21T08:11:45.097Z,77.33
2019-03-21T08:12:45.219Z,78.05
2019-03-21T08:13:45.080Z,77.53
2019-03-21T08:14:45.082Z,77.43
2019-03-21T08:15:45.053Z,77.73
2019-03-21T08:16:45.048Z,78.05
2019-03-21T08:17:45.086Z,78.35
2019-03-21T08:18:45.057Z,77.33
2019-03-21T08:19:45.005Z,77.64
2019-03-21T08:20:55.670Z,77.73
2019-03-21T08:21:45.984Z,78.15
2019-03-21T08:22:44.982Z,77.23
2019-03-21T08:23:44.964Z,77.94
2019-03-21T08:24:44.962Z,77.53
2019-03-21T08:25:44.944Z,77.39
2019-03-21T08:26:45.707Z,77.19
2019-03-21T08:27:44.919Z,77.60
2019-03-21T08:28:44.903Z,77.19
2019-03-21T08:29:44.929Z,77.29
2019-03-21T08:30:44.893Z,77.29
2019-03-21T08:31:44.884Z,77.60
2019-03-21T08:32:44.862Z,77.50
2019-03-21T08:33:44.846Z,77.29
2019-03-21T08:34:44.836Z,77.29
2019-03-21T08:35:44.837Z,77.50
2019-03-21T08:36:44.825Z,77.70
2019-03-21T08:37:44.816Z,77.50
2019-03-21T08:38:44.791Z,77.09
2019-03-21T08:39:44.779Z,77.09
2019-03-21T08:40:44.801Z,77.39
2019-03-21T08:41:44.822Z,77.26
2019-03-21T08:42:44.755Z,77.36
2019-03-21T08:43:44.751Z,76.88
2019-03-21T08:44:44.724Z,76.98
2019-03-21T08:45:44.714Z,76.98
2019-03-21T08:46:44.703Z,77.39
2019-03-21T08:47:44.697Z,77.29
2019-03-21T08:48:44.690Z,77.91
2019-03-21T08:49:44.669Z,77.80
2019-03-21T08:50:44.659Z,77.70
2019-03-21T08:51:44.668Z,77.60
2019-03-21T08:52:44.641Z,77.50
2019-03-21T08:53:44.649Z,79.13
2019-03-21T08:54:44.618Z,78.83
2019-03-21T08:55:44.600Z,78.93
2019-03-21T08:56:44.606Z,78.63
2019-03-21T08:57:44.595Z,79.13
2019-03-21T08:58:44.572Z,79.03
2019-03-21T08:59:44.557Z,78.72
2019-03-21T09:00:44.552Z,78.72
2019-03-21T09:01:44.537Z,78.28
2019-03-21T09:02:44.529Z,78.63
2019-03-21T09:03:44.520Z,78.49
2019-03-21T09:04:44.511Z,78.79
2019-03-21T09:05:44.489Z,77.91
2019-03-21T09:06:44.496Z,77.76
2019-03-21T09:07:44.473Z,78.08
2019-03-21T09:08:44.480Z,77.56
2019-03-21T09:09:44.454Z,77.42
2019-03-21T09:10:44.447Z,77.26
2019-03-21T09:11:44.442Z,77.97
2019-03-21T09:12:44.416Z,77.56
2019-03-21T09:13:44.419Z,77.87
2019-03-21T09:14:44.388Z,78.14
2019-03-21T09:15:44.382Z,78.04
2019-03-21T09:16:44.374Z,77.42
2019-03-21T09:17:44.357Z,76.40
2019-03-21T09:18:44.360Z,76.26
2019-03-21T09:19:44.346Z,76.47
2019-03-21T09:20:44.323Z,76.26
2019-03-21T09:21:44.338Z,77.53
2019-03-21T09:22:44.304Z,77.32
2019-03-21T09:23:44.310Z,76.81
2019-03-21T09:24:44.283Z,76.26
2019-03-21T09:25:44.267Z,76.30
2019-03-21T09:26:44.683Z,76.71
2019-03-21T09:27:44.262Z,76.61
2019-03-21T09:28:44.236Z,77.01
2019-03-21T09:29:53.041Z,76.91
2019-03-21T09:30:45.215Z,76.67
2019-03-21T09:31:44.219Z,76.20
2019-03-21T09:32:44.189Z,76.61
2019-03-21T09:33:44.177Z,77.83
2019-03-21T09:34:44.182Z,77.59
2019-03-21T09:35:44.154Z,77.83
2019-03-21T09:36:44.147Z,77.42
2019-03-21T09:37:44.135Z,77.42
2019-03-21T09:38:44.128Z,77.53
2019-03-21T09:39:44.120Z,77.83
2019-03-21T09:40:44.104Z,77.83
2019-03-21T09:41:44.108Z,76.78
2019-03-21T09:42:44.093Z,76.47
2019-03-21T09:43:44.076Z,76.26
2019-03-21T09:44:44.055Z,76.64
2019-03-21T09:45:44.047Z,75.96
2019-03-21T09:46:50.811Z,75.99
2019-03-21T09:47:45.023Z,76.40
2019-03-21T09:48:44.023Z,76.26
2019-03-21T09:49:44.010Z,76.37
2019-03-21T09:50:44.001Z,76.78
2019-03-21T09:51:43.975Z,76.23
2019-03-21T09:52:43.973Z,76.03
2019-03-21T09:53:43.992Z,75.92
2019-03-21T09:54:43.942Z,75.48
2019-03-21T09:55:43.950Z,74.90
2019-03-21T09:56:43.925Z,75.00
2019-03-21T09:57:43.908Z,74.93
2019-03-21T09:58:43.909Z,74.73
2019-03-21T09:59:43.899Z,75.85
2019-03-21T10:00:43.877Z,75.65
2019-03-21T10:01:43.873Z,75.21
2019-03-21T10:02:43.855Z,74.80
2019-03-21T10:03:43.846Z,75.04
2019-03-21T10:04:43.853Z,75.21
2019-03-21T10:05:43.843Z,75.31
2019-03-21T10:06:43.818Z,75.00
2019-03-21T10:07:43.811Z,75.24
2019-03-21T10:08:43.800Z,75.14
2019-03-21T10:09:43.797Z,75.24
2019-03-21T10:10:43.763Z,75.34
2019-03-21T10:11:43.765Z,75.79
2019-03-21T10:12:43.785Z,75.55
2019-03-21T10:13:43.730Z,75.79
2019-03-21T10:14:43.725Z,75.65
2019-03-21T10:15:43.716Z,75.55
2019-03-21T10:16:43.703Z,75.85
2019-03-21T10:17:43.739Z,75.65
2019-03-21T10:18:43.695Z,75.65
2019-03-21T10:19:43.672Z,75.31
2019-03-21T10:20:43.656Z,75.34
2019-03-21T10:21:43.934Z,76.30
2019-03-21T10:22:43.630Z,76.30
2019-03-21T10:23:43.623Z,76.20
2019-03-21T10:24:43.619Z,76.71
2019-03-21T10:25:43.603Z,76.16
2019-03-21T10:26:43.862Z,76.26
2019-03-21T10:27:43.578Z,76.12
2019-03-21T10:28:43.569Z,76.06
2019-03-21T10:29:43.572Z,75.75
2019-03-21T10:30:43.540Z,76.67
2019-03-21T10:31:43.557Z,76.06
2019-03-21T10:32:43.520Z,75.85
2019-03-21T10:33:43.513Z,75.96
2019-03-21T10:34:43.510Z,75.96
2019-03-21T10:35:43.499Z,76.12
2019-03-21T10:36:43.484Z,75.71
2019-03-21T10:37:43.467Z,75.21
2019-03-21T10:38:43.468Z,75.31
2019-03-21T10:39:43.444Z,75.31
2019-03-21T10:40:43.433Z,74.69
2019-03-21T10:41:43.417Z,74.59
2019-03-21T10:42:43.411Z,75.10
2019-03-21T10:43:43.407Z,75.21
2019-03-21T10:44:43.387Z,75.10
2019-03-21T10:45:43.384Z,75.41
2019-03-21T10:46:43.366Z,74.90
2019-03-21T10:47:43.356Z,75.41
2019-03-21T10:48:43.347Z,75.41
2019-03-21T10:49:43.336Z,75.62
2019-03-21T10:50:43.325Z,75.21
2019-03-21T10:51:54.090Z,75.00
2019-03-21T10:52:44.303Z,75.21
2019-03-21T10:53:43.287Z,75.21
2019-03-21T10:54:43.289Z,75.71
2019-03-21T10:55:43.282Z,75.31
2019-03-21T10:56:43.250Z,74.90
2019-03-21T10:57:43.244Z,75.21
2019-03-21T10:58:43.236Z,75.41
2019-03-21T10:59:43.227Z,74.93
2019-03-21T11:00:43.208Z,75.41
2019-03-21T11:01:43.206Z,75.00
2019-03-21T11:02:43.182Z,74.80
2019-03-21T11:03:43.173Z,74.97
2019-03-21T11:04:43.169Z,75.00
2019-03-21T11:05:43.152Z,75.21
2019-03-21T11:06:43.147Z,75.21
2019-03-21T11:07:43.142Z,74.90
2019-03-21T11:08:43.121Z,74.80
2019-03-21T11:09:43.110Z,74.90
2019-03-21T11:10:43.102Z,74.59
2019-03-21T11:11:43.106Z,74.59
2019-03-21T11:12:43.075Z,75.00
2019-03-21T11:13:43.075Z,74.69
2019-03-21T11:14:43.053Z,74.90
2019-03-21T11:15:43.041Z,74.80
2019-03-21T11:16:43.042Z,74.35
2019-03-21T11:17:43.056Z,74.66
2019-03-21T11:18:43.012Z,74.05
2019-03-21T11:19:42.992Z,73.74
2019-03-21T11:20:42.981Z,73.60
2019-03-21T11:21:42.976Z,73.50
2019-03-21T11:22:42.975Z,74.11
2019-03-21T11:23:42.963Z,73.33
2019-03-21T11:24:42.942Z,74.15
2019-03-21T11:25:42.934Z,73.54
2019-03-21T11:26:42.915Z,74.15
2019-03-21T11:27:42.924Z,73.74
2019-03-21T11:28:42.905Z,73.33
2019-03-21T11:29:42.882Z,74.25
2019-03-21T11:30:42.894Z,74.76
2019-03-21T11:31:42.866Z,73.98
2019-03-21T11:32:42.861Z,74.49
2019-03-21T11:33:42.841Z,74.69
2019-03-21T11:34:42.846Z,74.69
2019-03-21T11:35:42.821Z,74.69
2019-03-21T11:36:42.804Z,74.80
2019-03-21T11:37:42.802Z,74.69
2019-03-21T11:38:42.787Z,74.39
2019-03-21T11:39:42.789Z,74.29
2019-03-21T11:40:42.758Z,74.59
2019-03-21T11:41:42.751Z,74.35
2019-03-21T11:42:42.741Z,74.35
2019-03-21T11:43:42.733Z,73.64
2019-03-21T11:44:42.731Z,73.44
2019-03-21T11:45:42.727Z,73.13
2019-03-21T11:46:42.694Z,73.74
2019-03-21T11:47:42.701Z,73.03
2019-03-21T11:48:42.675Z,72.82
2019-03-21T11:49:42.685Z,73.23
2019-03-21T11:50:42.656Z,73.03
2019-03-21T11:51:42.635Z,72.82
2019-03-21T11:52:42.624Z,73.13
2019-03-21T11:53:42.642Z,72.92
2019-03-21T11:54:42.604Z,73.13
2019-03-21T11:55:42.610Z,73.33
2019-03-21T11:56:42.597Z,73.03
2019-03-21T11:57:42.574Z,73.13
2019-03-21T11:58:42.565Z,72.38
2019-03-21T11:59:51.430Z,73.23
2019-03-21T12:00:45.186Z,73.74
2019-03-21T12:01:42.554Z,72.92
2019-03-21T12:02:42.524Z,74.35
2019-03-21T12:03:42.508Z,73.54
2019-03-21T12:04:42.495Z,73.54
2019-03-21T12:05:42.483Z,73.94
2019-03-21T12:06:42.487Z,73.64
2019-03-21T12:07:42.516Z,73.74
2019-03-21T12:08:42.446Z,74.05
2019-03-21T12:09:42.437Z,73.64
2019-03-21T12:10:42.432Z,73.13
2019-03-21T12:11:42.418Z,73.74
2019-03-21T12:12:42.407Z,73.64
2019-03-21T12:13:42.391Z,72.82
2019-03-21T12:14:42.395Z,73.03
2019-03-21T12:15:42.374Z,73.23
2019-03-21T12:16:42.361Z,73.03
2019-03-21T12:17:42.358Z,73.13
2019-03-21T12:18:42.342Z,73.84
2019-03-21T12:19:42.340Z,72.89
2019-03-21T12:20:42.312Z,73.40
2019-03-21T12:21:42.308Z,72.48
2019-03-21T12:22:42.290Z,72.28
2019-03-21T12:23:42.286Z,72.34
2019-03-21T12:24:42.275Z,72.24
2019-03-21T12:25:42.258Z,72.04
2019-03-21T12:26:42.248Z,71.84
2019-03-21T12:27:42.238Z,72.24
2019-03-21T12:28:42.226Z,72.07
2019-03-21T12:29:42.224Z,72.28
2019-03-21T12:30:42.205Z,72.38
2019-03-21T12:31:42.200Z,72.48
2019-03-21T12:32:42.256Z,72.58
2019-03-21T12:33:42.180Z,72.92
2019-03-21T12:34:42.159Z,73.13
2019-03-21T12:35:42.148Z,72.69
2019-03-21T12:36:42.137Z,73.19
2019-03-21T12:37:42.129Z,72.89
2019-03-21T12:38:42.158Z,73.10
2019-03-21T12:39:42.107Z,72.79
2019-03-21T12:40:42.093Z,72.24
2019-03-21T12:41:42.079Z,72.48
2019-03-21T12:42:42.067Z,72.28
2019-03-21T12:43:42.060Z,73.10
2019-03-21T12:44:42.053Z,73.10
2019-03-21T12:45:42.036Z,73.10
2019-03-21T12:46:42.020Z,72.79
2019-03-21T12:47:42.025Z,72.58
2019-03-21T12:48:42.001Z,72.69
2019-03-21T12:49:42.023Z,72.58
2019-03-21T12:50:41.975Z,73.23
2019-03-21T12:51:41.969Z,73.44
2019-03-21T12:52:41.958Z,73.30